METAR Data
IDs: Format: Raw Decoded Include TAF

Data at: 1746 UTC 21 Sep 2018

KT20 211735Z AUTO 18007KT 10SM SCT030 31/25 A2995 RMK AO2 T03130245
KT20 211715Z AUTO 19008KT 10SM SCT026 SCT032 31/25 A2995 RMK AO2 T03110249
KT20 211655Z AUTO 19006KT 10SM CLR 31/25 A2996 RMK AO2 T03060252
KT20 211635Z AUTO 18011KT 10SM SCT027 SCT036 30/25 A2996 RMK AO2 T03010247
KT20 211615Z AUTO 17011G14KT 10SM SCT027 SCT033 30/25 A2997 RMK AO2 T03010246
KT20 211555Z AUTO 17014G19KT 10SM SCT025 SCT030 SCT044 30/25 A2996 RMK AO2 T03020248
KT20 211535Z AUTO 16012G16KT 10SM SCT018 SCT025 SCT030 30/25 A2996 RMK AO2 T02990253
KT20 211515Z AUTO 16011G16KT 10SM SCT015 BKN021 BKN028 29/26 A2996 RMK AO2 T02900260
KT20 211455Z AUTO 16011G16KT 10SM SCT009 BKN014 BKN022 28/27 A2995 RMK AO2 T02810268
KT20 211435Z AUTO 15007KT 10SM BKN007 BKN013 28/27 A2995 RMK AO2 T02750270
KT20 211415Z AUTO 15008KT 10SM BKN007 BKN013 BKN023 27/27 A2995 RMK AO2 T02720271
KT20 211355Z AUTO 14006KT 7SM SCT005 SCT016 BKN023 27/27 A2995 RMK AO2 T02660266
KT20 211335Z AUTO 14006KT 7SM SCT005 26/26 A2994 RMK AO2 T02610261
KT20 211315Z AUTO 14006KT 7SM CLR 26/26 A2993 RMK AO2 T02590259
KT20 211255Z AUTO 13004KT 7SM CLR 26/26 A2993 RMK AO2 T02560256
KT20 211235Z AUTO 13004KT 7SM CLR 26/26 A2992 RMK AO2 T02550255
KT20 211215Z AUTO 13005KT 10SM CLR 26/26 A2992 RMK AO2 T02550255
KT20 211155Z AUTO 13004KT 10SM CLR 26/26 A2992 RMK AO2 70135 T02560256 10260 20255
KT20 211135Z AUTO 13004KT 7SM CLR 26/26 A2992 RMK AO2 T02560256
KT20 211115Z AUTO 13004KT 10SM CLR 26/26 A2992 RMK AO2 T02560256
KT20 211055Z AUTO 13004KT 10SM CLR 26/26 A2991 RMK AO2 T02570257
KT20 211035Z AUTO 15005KT 10SM CLR 26/26 A2991 RMK AO2 T02580258
KT20 211015Z AUTO 15005KT 10SM CLR 26/26 A2991 RMK AO2 T02580258
KT20 210955Z AUTO 15005KT 10SM CLR 26/26 A2991 RMK AO2 T02580258
KT20 210935Z AUTO 15006KT 10SM CLR 26/26 A2991 RMK AO2 T02580258
KT20 210915Z AUTO 13006KT 7SM SCT020 26/26 A2991 RMK AO2 T02580258
KT20 210855Z AUTO 14004KT 10SM SCT015 SCT022 26/26 A2992 RMK AO2 T02580258
KT20 210835Z AUTO 13003KT 10SM SCT008 BKN015 BKN022 26/26 A2992 RMK AO2 T02580258
KT20 210815Z AUTO 13003KT 10SM SCT010 SCT015 26/26 A2992 RMK AO2 T02580258
KT20 210755Z AUTO 15003KT 10SM SCT010 SCT015 26/26 A2992 RMK AO2 T02580258
KT20 210735Z AUTO 15004KT 10SM BKN015 26/26 A2992 RMK AO2 T02590259
KT20 210715Z AUTO 15004KT 10SM BKN015 26/26 A2992 RMK AO2 T02600260
KT20 210655Z AUTO 15004KT 10SM CLR 26/26 A2992 RMK AO2 T02580258
KT20 210635Z AUTO 13006KT 10SM CLR 26/26 A2992 RMK AO2 T02570257
KT20 210615Z AUTO 14005KT 10SM CLR 26/26 A2992 RMK AO2 T02560256
KT20 210555Z AUTO 14006KT 10SM CLR 26/26 A2992 RMK AO2 P0001 60001 T02550255 10257 20250 403270235
KT20 210535Z AUTO 13005KT 10SM CLR 26/26 A2993 RMK AO2 P0001 T02550255
KT20 210515Z AUTO 13005KT 10SM -RA SCT100 SCT120 25/25 A2993 RMK AO2 P0001 T02530253
KT20 210455Z AUTO 14005KT 10SM -RA SCT100 SCT120 25/25 A2994 RMK AO2 T02530252
KT20 210435Z AUTO 14005KT 10SM -RA SCT085 SCT090 SCT110 25/25 A2995 RMK AO2 T02530251
KT20 210415Z AUTO 13004KT 10SM -DZ SCT110 25/25 A2996 RMK AO2 T02530250
KT20 210355Z AUTO 13004KT 10SM CLR 25/25 A2995 RMK AO2 T02530249
KT20 210335Z AUTO 14007KT 10SM -DZ CLR 25/25 A2995 RMK AO2 T02530250
KT20 210315Z AUTO 13004KT 10SM -DZ CLR 26/25 A2994 RMK AO2 T02550250
KT20 210250Z AUTO 13005KT 10SM CLR 26/25 A2993 RMK AO2 LTG DSNT W T02550250
KT20 210235Z AUTO 15006KT 10SM CLR 26/25 A2993 RMK AO2 T02560253
KT20 210215Z AUTO 15004KT 10SM CLR 26/25 A2992 RMK AO2 LTG DSNT SW AND W T02550254
KT20 210155Z AUTO 14005KT 10SM CLR 26/26 A2991 RMK AO2 LTG DSNT W T02560255
KT20 210135Z AUTO 15008KT 10SM CLR 26/25 A2990 RMK AO2 T02560253
KT20 210115Z AUTO 15008KT 10SM CLR 26/25 A2990 RMK AO2 LTG DSNT SW T02550253
KT20 210055Z AUTO 13006KT 10SM CLR 25/25 A2990 RMK AO2 T02520250
KT20 210035Z AUTO 13004KT 10SM CLR 25/25 A2990 RMK AO2 LTG DSNT NE T02510248
KT20 210015Z AUTO 14005KT 10SM CLR 25/25 A2989 RMK AO2 LTG DSNT NE T02500246
KT20 202355Z AUTO 12004KT 10SM SCT120 25/25 A2989 RMK AO2 60130 T02510248 10327 20235
KT20 202335Z AUTO 12005KT 10SM SCT014 SCT023 BKN100 25/25 A2990 RMK AO2 LTG DSNT N T02500250
KT20 202315Z AUTO 09004KT 10SM SCT024 BKN042 OVC110 25/25 A2990 RMK AO2 T02480248
KT20 202255Z AUTO 08004KT 10SM BKN110 25/25 A2989 RMK AO2 LTG DSNT NE T02490249
KT20 202235Z AUTO 08003KT 10SM -DZ SCT065 SCT075 25/25 A2990 RMK AO2 LTG DSNT NE T02500250
KT20 202215Z AUTO 00000KT 10SM RA SCT029 SCT036 BKN070 25/25 A2990 RMK AO2 LTG DSNT SW T02500250
KT20 202155Z AUTO 10004KT 10SM -DZ SCT031 BKN070 OVC100 25/25 A2990 RMK AO2 LTG DSNT SW THRU NE P0020 T02510251
KT20 202135Z AUTO 07003KT 10SM SCT070 BKN110 24/24 A2990 RMK AO2 LTG DSNT NE P0020 T02410241
KT20 202115Z AUTO 09004KT 7SM TS SCT012 BKN027 OVC100 24/24 A2990 RMK AO2 LTG DSNT N THRU S P0020 T02360235
KT20 202055Z AUTO 17009G17KT 1 1/4SM +TSRA BKN009 BKN017 OVC025 24/24 A2993 RMK AO2 LTG DSNT ALQS P0108 60108 T02400236
KT20 202035Z AUTO 21009G15KT 1SM +TSRA BKN010 BKN022 OVC029 24/24 A2992 RMK AO2 LTG DSNT ALQS P0053 T02430237
KT20 202015Z AUTO 17005KT 2 1/2SM +TSRA SCT023 BKN033 OVC055 25/23 A2991 RMK AO2 LTG DSNT NE THRU SW P0009 T02530228
KT20 201955Z AUTO 21008G16KT 7SM VCTSRA SCT036 BKN060 BKN070 29/24 A2989 RMK AO2 LTG DSNT E THRU SW T02870238
KT20 201935Z AUTO 13008KT 10SM SCT036 SCT050 32/24 A2990 RMK AO2 LTG DSNT NE AND S T03190241
KT20 201915Z AUTO 16007G14KT 10SM SCT034 SCT050 32/24 A2990 RMK AO2 LTG DSNT NE S AND SW T03150235
KT20 201855Z AUTO 15008KT 10SM VCTS SCT029 SCT049 SCT055 32/25 A2991 RMK AO2 LTG DSNT NE T03190246
KT20 201835Z AUTO 16007KT 10SM SCT026 SCT033 SCT049 31/24 A2992 RMK AO2 LTG DSNT NE T03100243
KT20 201815Z AUTO 13010KT 10SM SCT026 BKN034 BKN065 32/25 A2993 RMK AO2 LTG DSNT N T03160251
KT20 201755Z AUTO 17005KT 10SM SCT024 SCT030 SCT035 31/25 A2994 RMK AO2 LTG DSNT N 60004 T03050251 10305 20246
KT20 201735Z AUTO 16011KT 10SM BKN022 BKN030 BKN036 30/25 A2996 RMK AO2 LTG DSNT NE T02990249
KT20 201715Z AUTO 15010KT 10SM SCT015 BKN020 BKN025 30/26 A2997 RMK AO2 LTG DSNT N T02990258
KT20 201655Z AUTO 16008KT 10SM BKN013 BKN020 BKN029 29/27 A2997 RMK AO2 LTG DSNT N AND NE T02870266
KT20 201635Z AUTO 13004KT 10SM BKN013 BKN018 28/26 A2998 RMK AO2 T02810264
KT20 201615Z AUTO 14006KT 10SM BKN011 BKN017 BKN022 28/27 A2998 RMK AO2 T02780266
KT20 201555Z AUTO 13004KT 3SM -RA BKN009 BKN015 OVC022 27/26 A2998 RMK AO2 P0004 T02710260
KT20 201535Z AUTO 15005KT 10SM OVC007 28/27 A2998 RMK AO2 LTG DSNT NW T02770265
KT20 201515Z AUTO 12004KT 10SM BKN007 BKN017 OVC022 27/27 A2997 RMK AO2 LTG DSNT SW THRU NW T02720266
KT20 201455Z AUTO 13003KT 7SM BKN007 BKN014 OVC021 27/26 A2997 RMK AO2 LTG DSNT W T02650262
KT20 201435Z AUTO 12003KT 10SM SCT007 BKN014 BKN024 26/26 A2996 RMK AO2 T02620260
KT20 201415Z AUTO 00000KT 7SM BKN014 BKN020 BKN044 26/26 A2996 RMK AO2 T02590259
KT20 201355Z AUTO 10004KT 7SM SCT014 SCT020 SCT025 26/26 A2995 RMK AO2 T02550255
KT20 201335Z AUTO 10004KT 5SM BR CLR 25/25 A2994 RMK AO2 LTG DSNT W T02520252
KT20 201315Z AUTO 08003KT 5SM BR SCT028 25/25 A2993 RMK AO2 LTG DSNT W T02510251
KT20 201255Z AUTO 11003KT 5SM BR CLR 25/25 A2994 RMK AO2 LTG DSNT W T02500250
KT20 201235Z AUTO 13003KT 5SM BR CLR 25/25 A2993 RMK AO2 T02480248
KT20 201215Z AUTO 00000KT 7SM CLR 25/25 A2993 RMK AO2 LTG DSNT SW T02460246
KT20 201155Z AUTO 09003KT 5SM BR CLR 25/25 A2993 RMK AO2 LTG DSNT SW T02460246 10252 20245
KT20 201135Z AUTO 11003KT 7SM CLR 25/25 A2992 RMK AO2 T02450245
KT20 201115Z AUTO 00000KT 7SM CLR 25/25 A2992 RMK AO2 T02470247
KT20 201055Z AUTO 13004KT 7SM CLR 25/25 A2992 RMK AO2 T02470247
KT20 201035Z AUTO 11003KT 10SM CLR 25/25 A2992 RMK AO2 T02470247
KT20 201015Z AUTO 11003KT 7SM CLR 25/25 A2992 RMK AO2 T02460246
KT20 200955Z AUTO 09003KT 7SM CLR 25/25 A2992 RMK AO2 T02450245
KT20 200935Z AUTO 00000KT 10SM CLR 25/25 A2992 RMK AO2 T02460246
KT20 200915Z AUTO 00000KT 10SM SCT014 25/25 A2992 RMK AO2 T02470247
KT20 200855Z AUTO 00000KT 10SM SCT014 25/25 A2992 RMK AO2 T02470245
KT20 200835Z AUTO 00000KT 10SM SCT014 25/25 A2993 RMK AO2 T02500246
KT20 200815Z AUTO 00000KT 10SM BKN014 25/25 A2994 RMK AO2 T02510247
KT20 200755Z AUTO 00000KT 10SM BKN016 25/25 A2994 RMK AO2 T02500246
KT20 200735Z AUTO 00000KT 10SM SCT015 25/25 A2995 RMK AO2 T02500245
KT20 200715Z AUTO 00000KT 10SM SCT015 25/25 A2995 RMK AO2 T02510246
KT20 200655Z AUTO 00000KT 10SM CLR 25/25 A2995 RMK AO2 T02500245
KT20 200635Z AUTO 00000KT 10SM SCT014 25/25 A2995 RMK AO2 T02510245
KT20 200615Z AUTO 00000KT 10SM BKN014 25/25 A2995 RMK AO2 T02510245
KT20 200555Z AUTO 00000KT 10SM SCT014 25/24 A2996 RMK AO2 T02510242 10311 20251 403330223